Time;durP1;ratioP1;P1;durP2;ratioP2;P2;SDS_P1;SDS_P2;PMS_P1;PMS_P2;Temp;Humidity;BMP_temperature;BMP_pressure;BME280_temperature;BME280_humidity;BME280_pressure;Samples;Min_cycle;Max_cycle;Signal;HPM_P1;HPM_P2
2023/04/18 00:01:37;;;;;;;11.23;8.70;;;;;;;;;;5056774;28;20039;-59
2023/04/18 00:04:03;;;;;;;10.10;9.10;;;;;;;;;;5056130;28;20025;-59
2023/04/18 00:06:30;;;;;;;11.52;8.95;;;;;;;;;;5056691;28;20029;-59
2023/04/18 00:08:56;;;;;;;11.80;9.32;;;;;;;;;;5056356;28;20029;-58
2023/04/18 00:11:22;;;;;;;12.82;10.25;;;;;;;;;;5056060;28;20075;-59
2023/04/18 00:13:48;;;;;;;10.00;8.98;;;;;;;;;;5056134;28;20363;-59
2023/04/18 00:16:14;;;;;;;13.30;8.85;;;;;;;;;;5055988;28;20380;-59
2023/04/18 00:18:40;;;;;;;12.60;8.95;;;;;;;;;;5055919;28;20112;-58
2023/04/18 00:21:07;;;;;;;12.00;8.75;;;;;;;;;;5055850;28;20459;-59
2023/04/18 00:23:34;;;;;;;12.43;8.90;;;;;;;;;;5056684;28;20353;-58
2023/04/18 00:26:00;;;;;;;11.60;8.75;;;;;;;;;;5056345;28;20021;-58
2023/04/18 00:28:26;;;;;;;9.85;8.18;;;;;;;;;;5056507;28;20353;-58
2023/04/18 00:30:52;;;;;;;12.68;9.00;;;;;;;;;;5055985;28;20029;-58
2023/04/18 00:33:17;;;;;;;10.70;7.90;;;;;;;;;;5055650;28;20359;-58
2023/04/18 00:35:43;;;;;;;9.80;7.95;;;;;;;;;;5055501;28;20474;-58
2023/04/18 00:38:09;;;;;;;11.48;8.40;;;;;;;;;;5055115;28;20134;-58
2023/04/18 00:40:36;;;;;;;9.38;7.72;;;;;;;;;;5055522;28;20025;-58
2023/04/18 00:43:02;;;;;;;15.35;10.00;;;;;;;;;;5055284;28;20089;-59
2023/04/18 00:45:28;;;;;;;12.82;8.50;;;;;;;;;;5056178;28;20037;-59
2023/04/18 00:47:55;;;;;;;11.88;8.40;;;;;;;;;;5055278;28;20029;-59
2023/04/18 00:50:22;;;;;;;11.73;7.65;;;;;;;;;;5055850;28;20035;-59
2023/04/18 00:52:48;;;;;;;10.25;8.70;;;;;;;;;;5055316;28;20036;-59
2023/04/18 00:55:14;;;;;;;9.88;8.30;;;;;;;;;;5055245;28;20147;-59
2023/04/18 00:57:40;;;;;;;10.90;8.23;;;;;;;;;;5055402;28;20064;-59
2023/04/18 01:00:09;;;;;;;13.75;9.63;;;;;;;;;;5055133;28;20028;-59
2023/04/18 01:02:36;;;;;;;12.35;7.38;;;;;;;;;;5055024;28;20383;-58
2023/04/18 01:05:02;;;;;;;9.13;8.05;;;;;;;;;;5055081;28;20108;-58
2023/04/18 01:07:32;;;;;;;12.27;7.97;;;;;;;;;;5055624;28;20040;-58
2023/04/18 01:09:58;;;;;;;9.10;7.90;;;;;;;;;;5054956;28;20099;-58
2023/04/18 01:12:24;;;;;;;10.23;8.02;;;;;;;;;;5055663;28;20032;-59
2023/04/18 01:14:50;;;;;;;10.20;8.27;;;;;;;;;;5054850;28;20106;-58
2023/04/18 01:17:16;;;;;;;10.48;8.10;;;;;;;;;;5054730;28;20379;-58
2023/04/18 01:19:43;;;;;;;9.88;7.07;;;;;;;;;;5055115;28;20029;-59
2023/04/18 01:22:09;;;;;;;10.90;7.57;;;;;;;;;;5054742;28;20116;-58
2023/04/18 01:24:35;;;;;;;13.68;8.82;;;;;;;;;;5054679;28;20024;-58
2023/04/18 01:27:02;;;;;;;9.70;7.30;;;;;;;;;;5054691;28;20130;-58
2023/04/18 01:29:28;;;;;;;10.18;8.25;;;;;;;;;;5055047;28;20025;-58
2023/04/18 01:31:54;;;;;;;11.75;7.72;;;;;;;;;;5054545;28;20037;-58
2023/04/18 01:34:20;;;;;;;14.43;8.13;;;;;;;;;;5054730;28;20029;-58
2023/04/18 01:36:46;;;;;;;9.82;8.63;;;;;;;;;;5054506;28;20481;-59
2023/04/18 01:39:12;;;;;;;9.70;8.38;;;;;;;;;;5054504;28;20029;-58
2023/04/18 01:41:38;;;;;;;10.45;8.27;;;;;;;;;;5054343;28;20025;-59
2023/04/18 01:44:04;;;;;;;12.77;9.82;;;;;;;;;;5054651;28;20535;-59
2023/04/18 01:46:30;;;;;;;9.95;7.63;;;;;;;;;;5054560;28;20383;-59
2023/04/18 01:48:57;;;;;;;9.73;8.55;;;;;;;;;;5054185;28;20060;-58
2023/04/18 01:51:23;;;;;;;8.75;7.65;;;;;;;;;;5054517;28;20108;-59
2023/04/18 01:53:49;;;;;;;10.15;7.63;;;;;;;;;;5053033;28;20052;-58
2023/04/18 01:56:15;;;;;;;11.85;7.55;;;;;;;;;;5054050;28;20033;-59
2023/04/18 01:58:41;;;;;;;8.45;7.20;;;;;;;;;;5054367;28;20036;-58
2023/04/18 02:01:07;;;;;;;10.32;8.02;;;;;;;;;;5053786;28;20460;-59
2023/04/18 02:03:33;;;;;;;11.38;8.80;;;;;;;;;;5054018;28;20029;-59
2023/04/18 02:06:00;;;;;;;13.63;8.10;;;;;;;;;;5054507;28;20032;-58
2023/04/18 02:08:25;;;;;;;10.55;8.50;;;;;;;;;;5054221;28;20029;-58
2023/04/18 02:10:51;;;;;;;9.35;8.25;;;;;;;;;;5053923;28;20083;-58
2023/04/18 02:13:17;;;;;;;10.77;8.13;;;;;;;;;;5053870;28;20021;-58
2023/04/18 02:15:47;;;;;;;14.80;8.15;;;;;;;;;;5053579;28;20080;-59
2023/04/18 02:18:13;;;;;;;10.95;8.40;;;;;;;;;;5054562;28;20099;-58
2023/04/18 02:20:39;;;;;;;10.70;8.10;;;;;;;;;;5054273;28;20040;-59
2023/04/18 02:23:05;;;;;;;11.48;8.25;;;;;;;;;;5054526;28;20025;-59
2023/04/18 02:25:31;;;;;;;12.23;8.30;;;;;;;;;;5054204;28;20067;-58
2023/04/18 02:27:58;;;;;;;9.68;8.18;;;;;;;;;;5053654;28;20033;-58
2023/04/18 02:30:24;;;;;;;10.93;8.93;;;;;;;;;;5053326;28;20475;-58
2023/04/18 02:32:51;;;;;;;9.57;8.25;;;;;;;;;;5053534;28;20056;-58
2023/04/18 02:35:17;;;;;;;9.88;7.25;;;;;;;;;;5053910;28;20032;-58
2023/04/18 02:37:43;;;;;;;9.55;8.40;;;;;;;;;;5053494;28;20056;-59
2023/04/18 02:40:09;;;;;;;11.23;8.63;;;;;;;;;;5053892;28;20033;-58
2023/04/18 02:42:35;;;;;;;15.82;8.52;;;;;;;;;;5053457;28;20017;-59
2023/04/18 02:45:02;;;;;;;11.57;9.52;;;;;;;;;;5053465;28;20028;-59
2023/04/18 02:47:27;;;;;;;9.00;6.95;;;;;;;;;;5053416;28;20086;-58
2023/04/18 02:49:53;;;;;;;12.73;9.35;;;;;;;;;;5053489;28;20029;-58
2023/04/18 02:52:19;;;;;;;10.88;8.05;;;;;;;;;;5053397;28;20031;-59
2023/04/18 02:54:45;;;;;;;13.77;9.45;;;;;;;;;;5053453;28;20048;-58
2023/04/18 02:57:11;;;;;;;9.88;8.63;;;;;;;;;;5053673;28;20021;-58
2023/04/18 02:59:37;;;;;;;13.07;9.35;;;;;;;;;;5053637;28;20029;-58
2023/04/18 03:02:03;;;;;;;11.10;8.63;;;;;;;;;;5053626;28;20032;-58
2023/04/18 03:04:29;;;;;;;13.00;8.57;;;;;;;;;;5053408;28;20040;-58
2023/04/18 03:06:56;;;;;;;11.82;8.23;;;;;;;;;;5057564;28;20478;-59
2023/04/18 03:09:22;;;;;;;10.88;9.13;;;;;;;;;;5057220;28;20028;-58
2023/04/18 03:11:48;;;;;;;11.35;7.72;;;;;;;;;;5057117;28;20033;-58
2023/04/18 03:14:14;;;;;;;13.10;9.93;;;;;;;;;;5057451;28;20359;-59
2023/04/18 03:16:40;;;;;;;9.95;8.95;;;;;;;;;;5056730;28;20449;-58
2023/04/18 03:19:06;;;;;;;9.88;7.32;;;;;;;;;;5056790;28;20124;-59
2023/04/18 03:21:32;;;;;;;11.15;7.65;;;;;;;;;;5057036;28;20063;-59
2023/04/18 03:23:58;;;;;;;10.88;8.40;;;;;;;;;;5057058;28;20025;-59
2023/04/18 03:26:24;;;;;;;11.90;10.02;;;;;;;;;;5057028;28;20516;-58
2023/04/18 03:28:50;;;;;;;13.93;10.77;;;;;;;;;;5057389;28;20033;-59
2023/04/18 03:31:16;;;;;;;15.82;10.73;;;;;;;;;;5056898;28;20051;-58
2023/04/18 03:33:44;;;;;;;7.88;7.07;;;;;;;;;;5057249;28;20100;-58
2023/04/18 03:36:11;;;;;;;13.55;8.95;;;;;;;;;;5057389;28;20029;-57
2023/04/18 03:38:39;;;;;;;10.80;9.68;;;;;;;;;;5056890;28;20068;-57
2023/04/18 03:41:05;;;;;;;13.52;9.18;;;;;;;;;;5056422;28;20056;-58
2023/04/18 03:43:31;;;;;;;14.38;10.05;;;;;;;;;;5056363;28;20061;-57
2023/04/18 03:45:57;;;;;;;11.05;8.63;;;;;;;;;;5057230;28;20029;-58
2023/04/18 03:48:23;;;;;;;13.45;8.02;;;;;;;;;;5056983;28;20029;-58
2023/04/18 03:50:49;;;;;;;11.10;8.73;;;;;;;;;;5056902;28;20034;-58
2023/04/18 03:53:15;;;;;;;9.77;8.80;;;;;;;;;;5056499;28;20032;-58
2023/04/18 03:55:41;;;;;;;13.05;9.43;;;;;;;;;;5056886;28;20459;-58
2023/04/18 03:58:07;;;;;;;11.02;8.35;;;;;;;;;;5056715;28;20036;-58
2023/04/18 04:00:33;;;;;;;12.13;9.43;;;;;;;;;;5056989;28;20453;-58
2023/04/18 04:02:59;;;;;;;11.50;7.93;;;;;;;;;;5056397;28;20053;-58
2023/04/18 04:05:25;;;;;;;12.38;10.38;;;;;;;;;;5056362;28;20025;-58
2023/04/18 04:07:51;;;;;;;12.05;8.82;;;;;;;;;;5057090;28;20033;-58
2023/04/18 04:10:17;;;;;;;12.07;9.32;;;;;;;;;;5056264;28;20390;-58
2023/04/18 04:12:43;;;;;;;12.80;8.15;;;;;;;;;;5056749;28;20033;-58
2023/04/18 04:15:09;;;;;;;12.38;9.50;;;;;;;;;;5056047;28;20053;-58
2023/04/18 04:17:35;;;;;;;8.82;7.07;;;;;;;;;;5054832;28;20374;-58
2023/04/18 04:20:02;;;;;;;10.90;8.73;;;;;;;;;;5056613;28;20158;-58
2023/04/18 04:22:28;;;;;;;13.18;10.63;;;;;;;;;;5056308;28;20043;-58
2023/04/18 04:24:56;;;;;;;10.55;8.70;;;;;;;;;;5056518;28;20037;-58
2023/04/18 04:27:23;;;;;;;10.48;8.60;;;;;;;;;;5056246;28;20033;-58
2023/04/18 04:29:51;;;;;;;15.45;9.35;;;;;;;;;;5055851;28;20031;-59
2023/04/18 04:32:17;;;;;;;12.55;10.02;;;;;;;;;;5056083;28;20037;-58
2023/04/18 04:34:45;;;;;;;9.52;7.97;;;;;;;;;;5055757;28;20380;-58
2023/04/18 04:37:12;;;;;;;12.13;9.43;;;;;;;;;;5055975;28;20036;-59
2023/04/18 04:39:38;;;;;;;13.50;8.25;;;;;;;;;;5055618;28;20040;-58
2023/04/18 04:42:04;;;;;;;13.07;9.60;;;;;;;;;;5055878;28;20027;-59
2023/04/18 04:44:30;;;;;;;11.45;10.00;;;;;;;;;;5056194;28;20021;-58
2023/04/18 04:46:56;;;;;;;13.55;9.43;;;;;;;;;;5055514;28;20124;-58
2023/04/18 04:49:22;;;;;;;9.95;8.40;;;;;;;;;;5055447;28;20094;-58
2023/04/18 04:51:48;;;;;;;12.57;10.10;;;;;;;;;;5055495;28;20455;-58
2023/04/18 04:54:14;;;;;;;11.35;8.55;;;;;;;;;;5056237;28;20478;-59
2023/04/18 04:56:40;;;;;;;13.48;9.05;;;;;;;;;;5055124;28;20033;-59
2023/04/18 04:59:06;;;;;;;14.23;9.20;;;;;;;;;;5054961;28;20178;-58
2023/04/18 05:01:33;;;;;;;12.68;9.50;;;;;;;;;;5055307;28;20025;-58
2023/04/18 05:03:59;;;;;;;11.02;8.60;;;;;;;;;;5055751;28;20348;-58
2023/04/18 05:06:25;;;;;;;13.00;9.50;;;;;;;;;;5055747;28;20040;-58
2023/04/18 05:08:51;;;;;;;11.60;9.90;;;;;;;;;;5055087;28;20025;-58
2023/04/18 05:11:17;;;;;;;10.77;9.43;;;;;;;;;;5055412;28;20473;-58
2023/04/18 05:13:43;;;;;;;12.63;9.30;;;;;;;;;;5054825;28;20446;-58
2023/04/18 05:16:09;;;;;;;11.57;9.52;;;;;;;;;;5055495;28;20064;-58
2023/04/18 05:18:40;;;;;;;12.95;10.30;;;;;;;;;;5054936;28;20037;-58
2023/04/18 05:21:06;;;;;;;14.10;10.23;;;;;;;;;;5055181;28;20029;-58
2023/04/18 05:23:32;;;;;;;12.15;9.43;;;;;;;;;;5054832;28;20029;-58
2023/04/18 05:25:58;;;;;;;10.77;7.85;;;;;;;;;;5055007;28;20471;-58
2023/04/18 05:28:26;;;;;;;13.68;9.77;;;;;;;;;;5055089;28;20032;-58
2023/04/18 05:30:52;;;;;;;15.23;10.27;;;;;;;;;;5055447;28;20108;-59
2023/04/18 05:33:18;;;;;;;11.55;8.80;;;;;;;;;;5054577;28;20032;-58
2023/04/18 05:35:44;;;;;;;15.95;9.82;;;;;;;;;;5054600;28;20382;-58
2023/04/18 05:38:10;;;;;;;13.05;9.23;;;;;;;;;;5054356;28;20459;-58
2023/04/18 05:40:35;;;;;;;13.07;9.45;;;;;;;;;;5054499;28;20089;-58
2023/04/18 05:43:01;;;;;;;12.02;9.80;;;;;;;;;;5054531;28;20067;-58
2023/04/18 05:45:27;;;;;;;15.13;10.13;;;;;;;;;;5054682;28;20021;-59
2023/04/18 05:47:53;;;;;;;14.23;8.48;;;;;;;;;;5054412;28;20048;-58
2023/04/18 05:50:19;;;;;;;9.70;8.75;;;;;;;;;;5054368;28;20475;-58
2023/04/18 05:52:45;;;;;;;12.52;9.25;;;;;;;;;;5054240;28;20377;-58
2023/04/18 05:55:11;;;;;;;12.10;9.13;;;;;;;;;;5055025;28;20021;-59
2023/04/18 05:57:37;;;;;;;9.75;8.57;;;;;;;;;;5054843;28;20068;-59
2023/04/18 06:00:10;;;;;;;12.70;9.90;;;;;;;;;;5054539;28;20040;-58
2023/04/18 06:02:36;;;;;;;10.80;9.38;;;;;;;;;;5054382;28;20079;-58
2023/04/18 06:05:02;;;;;;;11.23;9.55;;;;;;;;;;5054259;28;20025;-59
2023/04/18 06:07:28;;;;;;;15.07;9.55;;;;;;;;;;5054274;28;20060;-58
2023/04/18 06:09:54;;;;;;;11.90;9.52;;;;;;;;;;5053842;28;20063;-58
2023/04/18 06:12:20;;;;;;;10.85;9.73;;;;;;;;;;5053529;28;20506;-58
2023/04/18 06:14:46;;;;;;;12.75;9.00;;;;;;;;;;5053907;28;20076;-58
2023/04/18 06:17:13;;;;;;;14.90;9.65;;;;;;;;;;5054294;28;20029;-58
2023/04/18 06:19:38;;;;;;;14.38;10.93;;;;;;;;;;5053756;28;20407;-58
2023/04/18 06:22:05;;;;;;;10.05;7.78;;;;;;;;;;5054485;28;20059;-58
2023/04/18 06:24:31;;;;;;;11.73;9.85;;;;;;;;;;5053871;28;20459;-59
2023/04/18 06:26:57;;;;;;;10.55;7.80;;;;;;;;;;5053826;28;20079;-58
2023/04/18 06:29:25;;;;;;;12.85;9.20;;;;;;;;;;5054007;28;20028;-58
2023/04/18 06:31:51;;;;;;;9.75;8.05;;;;;;;;;;5054384;28;20355;-59
2023/04/18 06:34:17;;;;;;;14.70;11.82;;;;;;;;;;5053389;28;20037;-58
2023/04/18 06:36:43;;;;;;;11.10;8.60;;;;;;;;;;5053527;28;20032;-58
2023/04/18 06:39:09;;;;;;;12.23;9.48;;;;;;;;;;5053889;28;20064;-58
2023/04/18 06:41:35;;;;;;;12.95;9.82;;;;;;;;;;5053291;28;20791;-58
2023/04/18 06:44:01;;;;;;;13.27;8.52;;;;;;;;;;5053543;28;20083;-58
2023/04/18 06:46:27;;;;;;;12.68;10.00;;;;;;;;;;5054107;28;20031;-58
2023/04/18 06:48:53;;;;;;;13.95;10.48;;;;;;;;;;5053540;28;20112;-59
2023/04/18 06:51:19;;;;;;;10.75;9.43;;;;;;;;;;5054084;28;20415;-58
2023/04/18 06:53:46;;;;;;;10.07;8.82;;;;;;;;;;5053467;28;20063;-58
2023/04/18 06:56:12;;;;;;;12.27;9.23;;;;;;;;;;5054194;28;20021;-58
2023/04/18 06:58:38;;;;;;;14.13;9.77;;;;;;;;;;5053430;28;20033;-58
2023/04/18 07:01:04;;;;;;;16.25;10.88;;;;;;;;;;5053706;28;20098;-58
2023/04/18 07:03:30;;;;;;;11.38;9.65;;;;;;;;;;5054009;28;20029;-58
2023/04/18 07:05:56;;;;;;;11.45;9.93;;;;;;;;;;5054033;28;20032;-58
2023/04/18 07:08:22;;;;;;;9.90;8.85;;;;;;;;;;5053942;28;20112;-58
2023/04/18 07:10:48;;;;;;;13.40;9.35;;;;;;;;;;5053017;28;20064;-58
2023/04/18 07:13:14;;;;;;;12.40;9.93;;;;;;;;;;5054067;28;20029;-58
2023/04/18 07:15:40;;;;;;;12.88;10.07;;;;;;;;;;5052804;28;20048;-58
2023/04/18 07:18:06;;;;;;;12.27;9.55;;;;;;;;;;5053163;28;20036;-58
2023/04/18 07:20:32;;;;;;;12.43;8.80;;;;;;;;;;5053190;28;20036;-58
2023/04/18 07:22:58;;;;;;;12.18;10.02;;;;;;;;;;5053577;28;20033;-58
2023/04/18 07:25:24;;;;;;;11.88;10.10;;;;;;;;;;5053654;28;20033;-58
2023/04/18 07:27:50;;;;;;;11.68;9.55;;;;;;;;;;5052923;28;20057;-58
2023/04/18 07:30:16;;;;;;;11.93;9.73;;;;;;;;;;5054025;28;20025;-58
2023/04/18 07:32:42;;;;;;;11.90;9.13;;;;;;;;;;5052905;28;20087;-58
2023/04/18 07:35:08;;;;;;;11.57;8.57;;;;;;;;;;5053119;28;20029;-58
2023/04/18 07:37:34;;;;;;;11.65;9.38;;;;;;;;;;5053029;28;20036;-58
2023/04/18 07:40:00;;;;;;;22.05;10.35;;;;;;;;;;5053059;28;20094;-58
2023/04/18 07:42:26;;;;;;;11.57;9.43;;;;;;;;;;5052934;28;20033;-58
2023/04/18 07:44:57;;;;;;;12.43;9.88;;;;;;;;;;5053854;28;20052;-58
2023/04/18 07:47:23;;;;;;;;;;;;;;;;;;5054356;28;20083;-58
2023/04/18 07:49:49;;;;;;;10.25;8.35;;;;;;;;;;5052821;28;19904;-59
2023/04/18 07:52:15;;;;;;;11.65;9.98;;;;;;;;;;5055019;28;20029;-58
2023/04/18 07:54:41;;;;;;;10.70;8.10;;;;;;;;;;5056493;28;20033;-58
2023/04/18 07:57:07;;;;;;;15.10;9.95;;;;;;;;;;5056663;28;20367;-58
2023/04/18 07:59:33;;;;;;;12.98;9.48;;;;;;;;;;5057016;28;20413;-58
2023/04/18 08:01:59;;;;;;;12.52;8.65;;;;;;;;;;5056308;28;20032;-59
2023/04/18 08:04:25;;;;;;;9.38;7.88;;;;;;;;;;5056401;28;20033;-58
2023/04/18 08:06:51;;;;;;;10.13;8.63;;;;;;;;;;5056864;28;20036;-59
2023/04/18 08:09:19;;;;;;;12.10;9.40;;;;;;;;;;5057062;28;20030;-59
2023/04/18 08:11:45;;;;;;;10.80;9.00;;;;;;;;;;5056858;28;20029;-59
2023/04/18 08:14:11;;;;;;;13.75;9.20;;;;;;;;;;5055966;28;20130;-59
2023/04/18 08:16:37;;;;;;;10.55;8.90;;;;;;;;;;5055986;28;20032;-59
2023/04/18 08:19:03;;;;;;;11.95;9.60;;;;;;;;;;5056089;28;20082;-59
2023/04/18 08:21:29;;;;;;;10.48;8.30;;;;;;;;;;5056139;28;20026;-59
2023/04/18 08:23:55;;;;;;;11.75;8.68;;;;;;;;;;5055991;28;20032;-58
2023/04/18 08:26:21;;;;;;;12.25;9.50;;;;;;;;;;5056740;28;20025;-58
2023/04/18 08:28:47;;;;;;;8.77;7.47;;;;;;;;;;5055879;28;20037;-58
2023/04/18 08:31:14;;;;;;;11.90;9.05;;;;;;;;;;5056059;28;20041;-59
2023/04/18 08:33:40;;;;;;;13.38;8.80;;;;;;;;;;5055779;28;20057;-58
2023/04/18 08:36:06;;;;;;;12.38;10.13;;;;;;;;;;5056256;28;20052;-59
2023/04/18 08:38:32;;;;;;;11.35;9.77;;;;;;;;;;5055741;28;20106;-59
2023/04/18 08:40:58;;;;;;;12.93;9.43;;;;;;;;;;5055617;28;20028;-59
2023/04/18 08:43:24;;;;;;;12.75;10.20;;;;;;;;;;5055584;28;20029;-59
2023/04/18 08:45:51;;;;;;;10.75;9.32;;;;;;;;;;5055243;28;20024;-59
2023/04/18 08:48:17;;;;;;;13.65;10.10;;;;;;;;;;5055434;28;20115;-59
2023/04/18 08:50:44;;;;;;;12.32;9.30;;;;;;;;;;5055838;28;20061;-59
2023/04/18 08:53:10;;;;;;;12.38;8.73;;;;;;;;;;5055703;28;20116;-59
2023/04/18 08:55:36;;;;;;;13.93;9.82;;;;;;;;;;5055508;28;20103;-59
2023/04/18 08:58:05;;;;;;;10.15;8.70;;;;;;;;;;5055356;28;20033;-59
2023/04/18 09:00:31;;;;;;;12.30;9.68;;;;;;;;;;5056124;28;20277;-59
2023/04/18 09:02:58;;;;;;;15.32;10.15;;;;;;;;;;5055421;28;20043;-59
2023/04/18 09:05:25;;;;;;;15.75;10.55;;;;;;;;;;5055798;28;20017;-59
2023/04/18 09:07:52;;;;;;;17.55;9.68;;;;;;;;;;5055386;28;20425;-59
2023/04/18 09:10:27;;;;;;;11.43;8.75;;;;;;;;;;5054891;28;20033;-59
2023/04/18 09:12:54;;;;;;;14.00;10.30;;;;;;;;;;5055097;28;20083;-59
2023/04/18 09:15:25;;;;;;;11.80;9.52;;;;;;;;;;5055272;28;20128;-59
2023/04/18 09:17:52;;;;;;;14.88;10.32;;;;;;;;;;5055777;28;20040;-59
2023/04/18 09:20:33;;;;;;;14.13;9.38;;;;;;;;;;5054956;28;20036;-59
2023/04/18 09:23:01;;;;;;;11.60;9.00;;;;;;;;;;5054870;28;20029;-59
2023/04/18 09:25:36;;;;;;;10.85;9.45;;;;;;;;;;5055388;28;20032;-59
2023/04/18 09:28:03;;;;;;;9.75;8.05;;;;;;;;;;5055062;28;20104;-59
2023/04/18 09:30:35;;;;;;;10.30;9.30;;;;;;;;;;5055301;28;20175;-59
2023/04/18 09:33:02;;;;;;;14.05;9.93;;;;;;;;;;5054707;28;20025;-59
2023/04/18 09:35:28;;;;;;;13.68;9.65;;;;;;;;;;5054983;28;20047;-59
2023/04/18 09:37:54;;;;;;;12.60;10.52;;;;;;;;;;5054536;28;20360;-59
2023/04/18 09:40:20;;;;;;;13.20;10.13;;;;;;;;;;5054546;28;20029;-59
2023/04/18 09:42:50;;;;;;;14.10;10.85;;;;;;;;;;5054431;28;20463;-59
2023/04/18 09:45:16;;;;;;;10.98;8.48;;;;;;;;;;5054331;28;20119;-59
2023/04/18 09:47:41;;;;;;;12.20;9.98;;;;;;;;;;5054726;28;20075;-59
2023/04/18 09:50:08;;;;;;;13.70;10.40;;;;;;;;;;5054584;28;20021;-59
2023/04/18 09:52:44;;;;;;;13.20;9.93;;;;;;;;;;5054666;28;20025;-59
2023/04/18 09:55:11;;;;;;;13.73;9.55;;;;;;;;;;5054351;28;20071;-59
2023/04/18 09:57:40;;;;;;;13.23;9.98;;;;;;;;;;5054208;28;20026;-59
2023/04/18 10:00:15;;;;;;;11.63;9.30;;;;;;;;;;5054252;28;20437;-59
2023/04/18 10:02:46;;;;;;;13.00;8.27;;;;;;;;;;5054384;28;20036;-59
2023/04/18 10:05:13;;;;;;;11.57;10.18;;;;;;;;;;5054441;28;20025;-59
2023/04/18 10:07:39;;;;;;;10.18;8.82;;;;;;;;;;5054042;28;20032;-59
2023/04/18 10:10:06;;;;;;;10.48;8.73;;;;;;;;;;5053796;28;20074;-59
2023/04/18 10:12:32;;;;;;;11.10;8.57;;;;;;;;;;5053991;28;20021;-59
2023/04/18 10:14:58;;;;;;;9.82;8.77;;;;;;;;;;5053654;28;20462;-59
2023/04/18 10:17:26;;;;;;;11.75;9.45;;;;;;;;;;5054172;28;20036;-59
2023/04/18 10:20:04;;;;;;;11.15;9.57;;;;;;;;;;5053904;28;20029;-59
2023/04/18 10:22:30;;;;;;;12.10;9.65;;;;;;;;;;5054424;28;20025;-59
2023/04/18 10:24:56;;;;;;;11.45;9.50;;;;;;;;;;5054114;28;20083;-59
2023/04/18 10:27:40;;;;;;;8.55;7.57;;;;;;;;;;5054675;28;20032;-59
2023/04/18 10:30:07;;;;;;;11.75;9.02;;;;;;;;;;5053808;28;20021;-59
2023/04/18 10:32:33;;;;;;;10.50;7.88;;;;;;;;;;5053419;28;20025;-59
2023/04/18 10:34:59;;;;;;;8.07;6.25;;;;;;;;;;5053758;28;20489;-59
2023/04/18 10:37:28;;;;;;;10.75;8.15;;;;;;;;;;5053921;28;20112;-59
2023/04/18 10:39:59;;;;;;;9.18;8.15;;;;;;;;;;5053968;28;20036;-59
2023/04/18 10:42:51;;;;;;;10.50;7.88;;;;;;;;;;5054026;28;20081;-59
2023/04/18 10:45:17;;;;;;;9.65;7.38;;;;;;;;;;5052502;28;20433;-59
2023/04/18 10:47:43;;;;;;;11.52;9.05;;;;;;;;;;5053629;28;20037;-59
2023/04/18 10:50:10;;;;;;;10.00;7.70;;;;;;;;;;5053654;28;20036;-59
2023/04/18 10:52:36;;;;;;;13.27;7.50;;;;;;;;;;5054055;28;20375;-59
2023/04/18 10:55:05;;;;;;;7.93;7.13;;;;;;;;;;5053565;28;20057;-59
2023/04/18 10:57:44;;;;;;;11.20;7.78;;;;;;;;;;5053501;28;20028;-59
2023/04/18 11:00:12;;;;;;;11.00;7.25;;;;;;;;;;5054257;28;20040;-59
2023/04/18 11:02:39;;;;;;;8.23;7.18;;;;;;;;;;5053996;28;20036;-59
2023/04/18 11:05:05;;;;;;;8.32;6.97;;;;;;;;;;5053422;28;20108;-59
2023/04/18 11:07:37;;;;;;;9.07;7.18;;;;;;;;;;5053820;28;20032;-59
2023/04/18 11:10:04;;;;;;;10.25;7.68;;;;;;;;;;5053392;28;20025;-59
2023/04/18 11:12:31;;;;;;;8.45;6.90;;;;;;;;;;5053681;28;20099;-59
2023/04/18 11:14:58;;;;;;;10.30;7.75;;;;;;;;;;5052908;28;20060;-59
2023/04/18 11:17:25;;;;;;;8.30;6.65;;;;;;;;;;5053479;28;20025;-59
2023/04/18 11:19:59;;;;;;;7.82;6.13;;;;;;;;;;5053110;28;20025;-59
2023/04/18 11:22:25;;;;;;;10.57;6.55;;;;;;;;;;5054127;28;20036;-59
2023/04/18 11:24:51;;;;;;;9.70;7.22;;;;;;;;;;5054040;28;20033;-59
2023/04/18 11:27:17;;;;;;;9.32;6.93;;;;;;;;;;5056602;28;20467;-59
2023/04/18 11:29:43;;;;;;;9.45;5.45;;;;;;;;;;5057306;28;20083;-59
2023/04/18 11:32:09;;;;;;;6.60;5.20;;;;;;;;;;5056983;28;20367;-59
2023/04/18 11:34:35;;;;;;;6.03;4.70;;;;;;;;;;5056952;28;20372;-59
2023/04/18 11:37:05;;;;;;;6.28;4.85;;;;;;;;;;5057268;28;20033;-59
2023/04/18 11:39:34;;;;;;;6.35;5.03;;;;;;;;;;5056966;28;20025;-59
2023/04/18 11:42:00;;;;;;;9.00;4.75;;;;;;;;;;5056693;28;20094;-59
2023/04/18 11:44:26;;;;;;;8.27;5.85;;;;;;;;;;5056657;28;20021;-59
2023/04/18 11:46:53;;;;;;;6.18;4.72;;;;;;;;;;5057575;28;20029;-59
2023/04/18 11:49:25;;;;;;;6.15;4.55;;;;;;;;;;5057020;28;20031;-59
2023/04/18 11:51:52;;;;;;;8.25;5.65;;;;;;;;;;5056920;28;20024;-59
2023/04/18 11:54:40;;;;;;;8.52;4.82;;;;;;;;;;5056592;28;20032;-59
2023/04/18 11:57:07;;;;;;;7.63;5.72;;;;;;;;;;5056494;28;20116;-59
2023/04/18 11:59:33;;;;;;;9.27;5.95;;;;;;;;;;5057054;28;20040;-59
2023/04/18 12:02:00;;;;;;;7.88;5.15;;;;;;;;;;5056012;28;20021;-59
2023/04/18 12:04:26;;;;;;;7.25;5.05;;;;;;;;;;5056382;28;20086;-59
2023/04/18 12:06:53;;;;;;;7.05;4.47;;;;;;;;;;5056737;28;20106;-59
2023/04/18 12:09:20;;;;;;;6.15;5.47;;;;;;;;;;5056530;28;20120;-59
2023/04/18 12:11:58;;;;;;;7.22;5.95;;;;;;;;;;5056363;28;20025;-59
2023/04/18 12:14:24;;;;;;;8.15;6.18;;;;;;;;;;5056502;28;20437;-59
2023/04/18 12:16:51;;;;;;;7.68;5.03;;;;;;;;;;5056654;28;20120;-59
2023/04/18 12:19:19;;;;;;;8.30;6.40;;;;;;;;;;5056178;28;20528;-59
2023/04/18 12:22:01;;;;;;;6.60;5.07;;;;;;;;;;5056554;28;20033;-59
2023/04/18 12:24:28;;;;;;;9.00;5.80;;;;;;;;;;5055972;28;20024;-59
2023/04/18 12:26:56;;;;;;;5.70;4.57;;;;;;;;;;5055997;28;20079;-59
2023/04/18 12:29:22;;;;;;;7.70;5.60;;;;;;;;;;5055926;28;20071;-59
2023/04/18 12:31:48;;;;;;;6.47;5.43;;;;;;;;;;5055814;28;20520;-59
2023/04/18 12:34:14;;;;;;;10.38;5.85;;;;;;;;;;5055893;28;20033;-59
2023/04/18 12:36:41;;;;;;;10.00;5.45;;;;;;;;;;5056004;28;20170;-59
2023/04/18 12:39:07;;;;;;;7.07;5.13;;;;;;;;;;5054942;28;20115;-59
2023/04/18 12:41:33;;;;;;;8.18;5.22;;;;;;;;;;5055574;28;20029;-59
2023/04/18 12:43:59;;;;;;;7.78;4.22;;;;;;;;;;5055826;28;20159;-59
2023/04/18 12:46:25;;;;;;;5.85;4.65;;;;;;;;;;5055707;28;20482;-59
2023/04/18 12:48:51;;;;;;;4.82;3.80;;;;;;;;;;5056170;28;20025;-60
2023/04/18 12:51:17;;;;;;;6.20;4.60;;;;;;;;;;5055564;28;20032;-60
2023/04/18 12:53:43;;;;;;;7.05;4.35;;;;;;;;;;5055508;28;20437;-59
2023/04/18 12:56:09;;;;;;;7.78;5.55;;;;;;;;;;5055655;28;20036;-59
2023/04/18 12:58:35;;;;;;;5.40;4.00;;;;;;;;;;5055264;28;20095;-59
2023/04/18 13:01:01;;;;;;;6.68;4.57;;;;;;;;;;5054717;28;20088;-59
2023/04/18 13:03:27;;;;;;;7.32;4.72;;;;;;;;;;5055435;28;20091;-59
2023/04/18 13:05:53;;;;;;;4.72;3.92;;;;;;;;;;5056012;28;20454;-59
2023/04/18 13:08:21;;;;;;;5.18;4.55;;;;;;;;;;5055187;28;20059;-59
2023/04/18 13:10:47;;;;;;;6.00;4.15;;;;;;;;;;5055128;28;20461;-59
2023/04/18 13:13:13;;;;;;;7.18;5.90;;;;;;;;;;5054757;28;20029;-59
2023/04/18 13:15:39;;;;;;;6.40;4.00;;;;;;;;;;5056243;28;20048;-59
2023/04/18 13:18:05;;;;;;;6.55;4.05;;;;;;;;;;5055015;28;20470;-59
2023/04/18 13:20:31;;;;;;;6.18;4.30;;;;;;;;;;5055375;28;20040;-59
2023/04/18 13:22:57;;;;;;;5.63;4.13;;;;;;;;;;5055209;28;20116;-59
2023/04/18 13:25:24;;;;;;;7.22;4.60;;;;;;;;;;5054910;28;20082;-59
2023/04/18 13:27:50;;;;;;;6.15;4.60;;;;;;;;;;5055222;28;20033;-59
2023/04/18 13:30:16;;;;;;;4.60;3.83;;;;;;;;;;5054736;28;20029;-59
2023/04/18 13:32:42;;;;;;;6.30;3.60;;;;;;;;;;5054639;28;20186;-59
2023/04/18 13:35:09;;;;;;;8.52;3.53;;;;;;;;;;5054594;28;20107;-59
2023/04/18 13:37:35;;;;;;;6.28;3.80;;;;;;;;;;5054494;28;20029;-59
2023/04/18 13:40:05;;;;;;;4.53;3.75;;;;;;;;;;5054609;28;20044;-59
2023/04/18 13:42:31;;;;;;;4.95;3.60;;;;;;;;;;5054439;28;20112;-60
2023/04/18 13:44:58;;;;;;;4.60;3.50;;;;;;;;;;5054474;28;20060;-59
2023/04/18 13:47:24;;;;;;;5.38;3.80;;;;;;;;;;5055265;28;20379;-59
2023/04/18 13:49:50;;;;;;;6.20;4.43;;;;;;;;;;5054360;28;20039;-60
2023/04/18 13:52:17;;;;;;;3.40;2.20;;;;;;;;;;5054292;28;20028;-59
2023/04/18 13:54:43;;;;;;;5.60;3.17;;;;;;;;;;5054848;28;20037;-59
2023/04/18 13:57:13;;;;;;;6.28;3.92;;;;;;;;;;5054763;28;20029;-59
2023/04/18 13:59:39;;;;;;;4.57;3.50;;;;;;;;;;5054256;28;20051;-59
2023/04/18 14:02:05;;;;;;;3.63;3.17;;;;;;;;;;5054574;28;20060;-59
2023/04/18 14:04:32;;;;;;;5.93;4.03;;;;;;;;;;5054131;28;20021;-59
2023/04/18 14:06:58;;;;;;;4.13;3.45;;;;;;;;;;5054791;28;20025;-59
2023/04/18 14:09:24;;;;;;;5.25;3.05;;;;;;;;;;5054045;28;20048;-59
2023/04/18 14:11:50;;;;;;;3.75;3.08;;;;;;;;;;5053928;28;20021;-60
2023/04/18 14:14:16;;;;;;;5.97;3.75;;;;;;;;;;5053941;28;20051;-59
2023/04/18 14:16:42;;;;;;;5.57;3.60;;;;;;;;;;5053875;28;20033;-59
2023/04/18 14:19:09;;;;;;;4.78;3.28;;;;;;;;;;5053873;28;20546;-59
2023/04/18 14:21:35;;;;;;;5.13;3.22;;;;;;;;;;5054330;28;20056;-59
2023/04/18 14:24:01;;;;;;;6.38;4.53;;;;;;;;;;5054184;28;20025;-59
2023/04/18 14:26:27;;;;;;;5.05;4.20;;;;;;;;;;5054370;28;20033;-59
2023/04/18 14:28:53;;;;;;;4.82;4.05;;;;;;;;;;5053769;28;20028;-59
2023/04/18 14:31:19;;;;;;;6.38;3.80;;;;;;;;;;5053858;28;20035;-59